createdAt,value
2023-03-29T00:01:35.140Z,7.43
2023-03-29T00:04:04.317Z,7.95
2023-03-29T00:06:33.167Z,5.25
2023-03-29T00:09:02.006Z,3.20
2023-03-29T00:11:28.710Z,8.95
2023-03-29T00:13:55.472Z,6.40
2023-03-29T00:16:22.494Z,5.25
2023-03-29T00:18:49.210Z,7.43
2023-03-29T00:21:15.877Z,7.30
2023-03-29T00:23:42.633Z,4.75
2023-03-29T00:26:09.480Z,5.03
2023-03-29T00:28:36.291Z,5.72
2023-03-29T00:31:08.587Z,5.53
2023-03-29T00:33:35.756Z,5.93
2023-03-29T00:36:03.857Z,5.78
2023-03-29T00:38:31.508Z,7.15
2023-03-29T00:40:59.034Z,4.97
2023-03-29T00:43:25.945Z,7.05
2023-03-29T00:45:53.008Z,5.23
2023-03-29T00:48:27.131Z,8.88
2023-03-29T00:51:03.743Z,5.03
2023-03-29T00:53:33.348Z,4.70
2023-03-29T00:56:14.029Z,3.60
2023-03-29T00:58:59.142Z,6.73
2023-03-29T01:01:41.977Z,5.50
2023-03-29T01:04:18.645Z,4.72
2023-03-29T01:07:01.074Z,6.78
2023-03-29T01:09:30.376Z,7.28
2023-03-29T01:12:02.566Z,4.40
2023-03-29T01:14:48.649Z,4.25
2023-03-29T01:17:16.033Z,6.50
2023-03-29T01:19:50.132Z,4.65
2023-03-29T01:22:49.016Z,6.93
2023-03-29T01:25:53.472Z,5.37
2023-03-29T01:28:29.757Z,3.88
2023-03-29T01:31:03.559Z,6.05
2023-03-29T01:33:36.287Z,6.30
2023-03-29T01:36:37.166Z,4.22
2023-03-29T01:39:05.903Z,4.03
2023-03-29T01:41:55.991Z,6.60
2023-03-29T01:44:54.183Z,5.35
2023-03-29T01:47:33.842Z,5.13
2023-03-29T01:50:08.569Z,5.18
2023-03-29T01:52:53.784Z,6.63
2023-03-29T01:55:35.892Z,8.90
2023-03-29T01:58:05.065Z,7.32
2023-03-29T02:00:34.195Z,7.50
2023-03-29T02:03:05.765Z,5.43
2023-03-29T02:05:34.508Z,8.60
2023-03-29T02:08:03.481Z,6.72
2023-03-29T02:10:30.612Z,3.83
2023-03-29T02:12:58.444Z,5.55
2023-03-29T02:15:25.275Z,6.28
2023-03-29T02:17:52.880Z,4.20
2023-03-29T02:20:25.662Z,7.00
2023-03-29T02:23:04.618Z,4.57
2023-03-29T02:25:32.462Z,5.30
2023-03-29T02:27:59.685Z,9.05
2023-03-29T02:30:32.422Z,4.50
2023-03-29T02:33:21.886Z,5.53
2023-03-29T02:36:00.675Z,7.05
2023-03-29T02:38:28.477Z,6.82
2023-03-29T02:40:56.184Z,8.13
2023-03-29T02:43:26.006Z,5.97
2023-03-29T02:45:53.412Z,6.95
2023-03-29T02:48:23.196Z,8.48
2023-03-29T02:50:53.400Z,5.22
2023-03-29T02:53:26.671Z,6.00
2023-03-29T02:55:53.832Z,8.07
2023-03-29T02:58:20.620Z,7.55
2023-03-29T03:00:48.961Z,5.45
2023-03-29T03:03:15.870Z,9.80
2023-03-29T03:05:43.948Z,6.00
2023-03-29T03:08:10.622Z,6.90
2023-03-29T03:10:37.640Z,8.40
2023-03-29T03:13:04.425Z,6.40
2023-03-29T03:15:35.482Z,7.63
2023-03-29T03:18:03.440Z,9.10
2023-03-29T03:20:31.089Z,5.70
2023-03-29T03:22:58.342Z,6.00
2023-03-29T03:25:25.167Z,5.45
2023-03-29T03:27:51.783Z,6.43
2023-03-29T03:30:18.854Z,5.78
2023-03-29T03:32:45.584Z,5.77
2023-03-29T03:35:12.758Z,8.52
2023-03-29T03:37:40.226Z,8.63
2023-03-29T03:40:08.855Z,6.28
2023-03-29T03:42:35.688Z,5.43
2023-03-29T03:45:02.330Z,6.43
2023-03-29T03:47:29.237Z,6.88
2023-03-29T03:49:56.332Z,7.30
2023-03-29T03:52:23.236Z,6.45
2023-03-29T03:54:50.158Z,8.95
2023-03-29T03:57:17.639Z,8.17
2023-03-29T03:59:44.711Z,7.15
2023-03-29T04:02:11.441Z,6.47
2023-03-29T04:04:39.410Z,8.70
2023-03-29T04:07:06.123Z,7.40
2023-03-29T04:09:34.142Z,7.87
2023-03-29T04:12:01.616Z,6.95
2023-03-29T04:14:28.390Z,8.25
2023-03-29T04:16:55.214Z,8.10
2023-03-29T04:19:22.002Z,7.75
2023-03-29T04:21:49.571Z,6.40
2023-03-29T04:24:17.165Z,6.95
2023-03-29T04:26:44.248Z,10.20
2023-03-29T04:29:10.896Z,5.45
2023-03-29T04:31:37.594Z,7.60
2023-03-29T04:34:04.455Z,6.47
2023-03-29T04:36:31.062Z,7.68
2023-03-29T04:39:01.416Z,7.22
2023-03-29T04:41:28.606Z,7.25
2023-03-29T04:43:55.865Z,6.82
2023-03-29T04:46:26.348Z,7.73
2023-03-29T04:48:53.897Z,7.50
2023-03-29T04:51:22.194Z,5.75
2023-03-29T04:53:50.339Z,5.13
2023-03-29T04:56:17.564Z,5.63
2023-03-29T04:58:44.537Z,6.83
2023-03-29T05:01:11.358Z,5.07
2023-03-29T05:03:38.090Z,8.95
2023-03-29T05:06:07.219Z,7.78
2023-03-29T05:08:35.226Z,10.25
2023-03-29T05:11:02.054Z,8.43
2023-03-29T05:13:28.855Z,5.80
2023-03-29T05:15:57.075Z,8.63
2023-03-29T05:18:23.736Z,7.78
2023-03-29T05:20:53.219Z,8.65
2023-03-29T05:23:20.442Z,6.13
2023-03-29T05:25:51.288Z,4.90
2023-03-29T05:28:18.460Z,9.07
2023-03-29T05:30:46.560Z,8.57
2023-03-29T05:33:13.311Z,8.07
2023-03-29T05:35:39.979Z,6.77
2023-03-29T05:38:06.940Z,7.35
2023-03-29T05:40:33.643Z,9.93
2023-03-29T05:43:02.487Z,9.93
2023-03-29T05:45:30.111Z,4.85
2023-03-29T05:47:57.592Z,7.37
2023-03-29T05:50:24.727Z,10.50
2023-03-29T05:52:51.581Z,6.90
2023-03-29T05:55:18.444Z,6.05
2023-03-29T05:57:45.220Z,8.27
2023-03-29T06:00:23.868Z,8.47
2023-03-29T06:02:59.299Z,7.82
2023-03-29T06:05:33.908Z,7.95
2023-03-29T06:08:01.202Z,5.93
2023-03-29T06:10:28.917Z,5.80
2023-03-29T06:12:55.524Z,10.37
2023-03-29T06:15:23.149Z,8.52
2023-03-29T06:17:49.939Z,9.20
2023-03-29T06:20:16.986Z,6.15
2023-03-29T06:22:43.685Z,6.93
2023-03-29T06:25:15.231Z,6.87
2023-03-29T06:27:41.892Z,10.48
2023-03-29T06:30:09.184Z,6.35
2023-03-29T06:32:36.112Z,6.93
2023-03-29T06:35:04.900Z,6.55
2023-03-29T06:37:32.443Z,10.00
2023-03-29T06:39:59.727Z,8.15
2023-03-29T06:42:26.742Z,11.50
2023-03-29T06:44:53.369Z,7.05
2023-03-29T06:47:20.229Z,5.95
2023-03-29T06:49:46.899Z,6.10
2023-03-29T06:52:13.503Z,11.20
2023-03-29T06:54:40.624Z,9.30
2023-03-29T06:57:08.042Z,9.10
2023-03-29T06:59:35.102Z,8.15
2023-03-29T07:02:02.598Z,12.60
2023-03-29T07:04:29.624Z,9.73
2023-03-29T07:07:02.158Z,10.10
2023-03-29T07:09:30.461Z,9.25
2023-03-29T07:11:58.522Z,8.93
2023-03-29T07:14:28.620Z,9.67
2023-03-29T07:16:56.363Z,11.10
2023-03-29T07:19:25.163Z,11.15
2023-03-29T07:21:53.317Z,9.07
2023-03-29T07:24:21.270Z,13.38
2023-03-29T07:27:00.135Z,10.07
2023-03-29T07:29:29.750Z,10.07
2023-03-29T07:31:56.547Z,12.98
2023-03-29T07:34:24.239Z,13.32
2023-03-29T07:36:51.486Z,10.18
2023-03-29T07:39:18.362Z,10.43
2023-03-29T07:41:44.934Z,8.85
2023-03-29T07:44:11.560Z,9.70
2023-03-29T07:46:38.277Z,11.07
2023-03-29T07:49:05.521Z,11.27
2023-03-29T07:51:32.166Z,10.07
2023-03-29T07:53:59.740Z,9.73
2023-03-29T07:56:26.479Z,9.77
2023-03-29T07:58:53.231Z,8.88
2023-03-29T08:01:20.417Z,13.70
2023-03-29T08:03:47.982Z,13.33
2023-03-29T08:06:16.123Z,11.55
2023-03-29T08:08:42.784Z,10.20
2023-03-29T08:11:09.983Z,10.45
2023-03-29T08:13:36.956Z,12.40
2023-03-29T08:16:04.241Z,10.83
2023-03-29T08:18:33.424Z,9.65
2023-03-29T08:21:01.488Z,14.85
2023-03-29T08:23:28.329Z,11.63
2023-03-29T08:25:54.933Z,9.90
2023-03-29T08:28:22.271Z,13.03
2023-03-29T08:30:49.701Z,13.75
2023-03-29T08:33:17.095Z,14.02
2023-03-29T08:35:43.825Z,9.90
2023-03-29T08:38:11.076Z,11.90
2023-03-29T08:40:37.854Z,10.50
2023-03-29T08:43:14.461Z,12.32
2023-03-29T08:46:14.845Z,13.80
2023-03-29T08:48:49.479Z,12.68
2023-03-29T08:51:31.568Z,11.77
2023-03-29T08:54:08.035Z,12.50
2023-03-29T08:56:37.251Z,13.88
2023-03-29T08:59:06.524Z,16.70
2023-03-29T09:01:36.237Z,14.73
2023-03-29T09:04:16.552Z,14.05
2023-03-29T09:06:43.225Z,14.07
2023-03-29T09:09:17.362Z,16.92
2023-03-29T09:12:16.573Z,11.85
2023-03-29T09:14:59.754Z,15.05
2023-03-29T09:17:54.186Z,17.10
2023-03-29T09:20:33.920Z,10.13
2023-03-29T09:23:11.410Z,15.57
2023-03-29T09:26:06.649Z,14.05
2023-03-29T09:28:38.256Z,15.18
2023-03-29T09:31:21.468Z,18.25
2023-03-29T09:34:06.674Z,12.83
2023-03-29T09:36:51.433Z,13.50
2023-03-29T09:39:20.967Z,14.57
2023-03-29T09:41:50.979Z,12.60
2023-03-29T09:44:40.076Z,12.18
2023-03-29T09:47:19.146Z,15.50
2023-03-29T09:49:49.564Z,13.10
2023-03-29T09:52:17.504Z,12.55
2023-03-29T09:54:44.400Z,16.58
2023-03-29T09:57:13.852Z,13.90
2023-03-29T09:59:40.949Z,11.40
2023-03-29T10:02:13.332Z,16.42
2023-03-29T10:04:42.475Z,17.50
2023-03-29T10:07:18.093Z,14.13
2023-03-29T10:09:46.648Z,12.23
2023-03-29T10:12:13.941Z,13.50
2023-03-29T10:14:47.890Z,15.55
2023-03-29T10:17:19.675Z,14.63
2023-03-29T10:19:57.799Z,13.88
2023-03-29T10:22:27.729Z,17.25
2023-03-29T10:24:57.123Z,13.47
2023-03-29T10:27:29.128Z,13.77
2023-03-29T10:29:58.070Z,15.38
2023-03-29T10:32:36.059Z,16.23
2023-03-29T10:35:24.067Z,18.33
2023-03-29T10:37:57.558Z,16.63
2023-03-29T10:40:30.803Z,17.00
2023-03-29T10:43:12.218Z,19.13
2023-03-29T10:45:39.825Z,14.63
2023-03-29T10:48:07.735Z,15.50
2023-03-29T10:50:39.752Z,14.00
2023-03-29T10:53:22.766Z,21.42
2023-03-29T10:56:29.395Z,17.13
2023-03-29T10:59:22.614Z,15.63
2023-03-29T11:02:08.973Z,13.27
2023-03-29T11:04:38.450Z,14.13
2023-03-29T11:07:42.609Z,15.35
2023-03-29T11:10:26.940Z,14.73
2023-03-29T11:13:02.708Z,14.25
2023-03-29T11:15:45.305Z,15.75
2023-03-29T11:19:00.048Z,14.90
2023-03-29T11:21:29.748Z,18.67
2023-03-29T11:24:24.643Z,16.17
2023-03-29T11:27:02.300Z,17.55
2023-03-29T11:29:40.021Z,15.30
2023-03-29T11:32:15.418Z,16.40
2023-03-29T11:35:06.404Z,16.42
2023-03-29T11:38:05.534Z,18.02
2023-03-29T11:40:57.639Z,18.25
2023-03-29T11:43:35.925Z,15.05
2023-03-29T11:46:11.149Z,18.60
2023-03-29T11:48:53.725Z,15.73
2023-03-29T11:51:32.233Z,20.42
2023-03-29T11:54:20.608Z,18.70
2023-03-29T11:57:25.089Z,18.80
2023-03-29T12:00:02.797Z,20.27
2023-03-29T12:02:49.734Z,22.63
2023-03-29T12:05:37.219Z,18.13
2023-03-29T12:08:13.005Z,16.45
2023-03-29T12:10:45.058Z,18.23
2023-03-29T12:13:14.583Z,19.17
2023-03-29T12:15:53.798Z,19.33
2023-03-29T12:18:26.895Z,18.05
2023-03-29T12:20:58.929Z,18.95
2023-03-29T12:23:25.984Z,17.17
2023-03-29T12:26:02.316Z,21.70
2023-03-29T12:28:43.031Z,18.55
2023-03-29T12:31:35.915Z,19.77
2023-03-29T12:34:11.613Z,18.73
2023-03-29T12:37:04.267Z,21.70
2023-03-29T12:39:31.368Z,21.20
2023-03-29T12:42:14.774Z,17.23
2023-03-29T12:44:46.187Z,19.77
2023-03-29T12:47:23.360Z,21.00
2023-03-29T12:49:56.538Z,19.10
2023-03-29T12:52:32.682Z,19.40
2023-03-29T12:55:01.991Z,21.77
2023-03-29T12:57:42.095Z,19.25
2023-03-29T13:00:22.030Z,19.45
2023-03-29T13:03:19.704Z,20.25
2023-03-29T13:05:47.038Z,20.03
2023-03-29T13:08:25.950Z,21.58
2023-03-29T13:10:56.789Z,21.20
2023-03-29T13:13:36.619Z,19.13
2023-03-29T13:16:17.877Z,25.17
2023-03-29T13:18:51.955Z,24.17
2023-03-29T13:21:43.595Z,20.02
2023-03-29T13:24:45.436Z,19.60
2023-03-29T13:27:29.028Z,19.02
2023-03-29T13:30:04.477Z,21.05
2023-03-29T13:33:08.122Z,19.67
2023-03-29T13:36:00.732Z,17.20
2023-03-29T13:38:31.694Z,18.70
2023-03-29T13:41:12.197Z,18.67
2023-03-29T13:43:44.605Z,22.65
2023-03-29T13:46:23.562Z,21.33
2023-03-29T13:49:03.562Z,22.73
2023-03-29T13:51:34.681Z,21.65
2023-03-29T13:54:22.831Z,19.35
2023-03-29T13:56:57.400Z,20.58
2023-03-29T13:59:41.122Z,19.00
2023-03-29T14:02:13.871Z,20.02
2023-03-29T14:04:46.012Z,18.48
2023-03-29T14:07:14.585Z,23.50
2023-03-29T14:09:45.148Z,21.90
2023-03-29T14:12:14.508Z,21.50
2023-03-29T14:14:57.715Z,23.10
2023-03-29T14:17:25.800Z,19.25
2023-03-29T14:19:53.519Z,19.92
2023-03-29T14:22:21.385Z,22.35
2023-03-29T14:24:53.046Z,20.23
2023-03-29T14:27:21.470Z,20.40
2023-03-29T14:29:49.998Z,18.58
2023-03-29T14:32:19.502Z,15.52
2023-03-29T14:34:50.355Z,20.35
2023-03-29T14:37:26.672Z,14.23
2023-03-29T14:39:53.775Z,16.23
2023-03-29T14:42:24.461Z,14.82
2023-03-29T14:44:51.097Z,14.85
2023-03-29T14:47:29.502Z,16.35
2023-03-29T14:50:00.630Z,14.10
2023-03-29T14:52:29.225Z,17.63
2023-03-29T14:54:57.669Z,15.05
2023-03-29T14:57:27.241Z,14.45
2023-03-29T14:59:59.314Z,13.85
2023-03-29T15:02:29.274Z,15.27
2023-03-29T15:05:00.218Z,12.73
2023-03-29T15:07:28.365Z,11.95
2023-03-29T15:09:57.844Z,12.13
2023-03-29T15:12:25.338Z,12.65
2023-03-29T15:14:52.860Z,15.57
2023-03-29T15:17:49.608Z,9.32
2023-03-29T15:20:30.004Z,13.85
2023-03-29T15:23:22.601Z,10.02
2023-03-29T15:26:21.515Z,12.40
2023-03-29T15:28:55.501Z,14.00
2023-03-29T15:31:26.956Z,11.50
2023-03-29T15:34:13.785Z,9.48
2023-03-29T15:36:46.266Z,10.25
2023-03-29T15:39:15.350Z,8.65
2023-03-29T15:41:43.357Z,13.13
2023-03-29T15:44:11.173Z,10.23
2023-03-29T15:46:37.971Z,11.00
2023-03-29T15:49:05.105Z,8.90
2023-03-29T15:51:31.906Z,11.70
2023-03-29T15:53:58.477Z,9.33
2023-03-29T15:56:26.643Z,11.15
2023-03-29T15:58:53.224Z,9.27
2023-03-29T16:01:36.493Z,11.85
2023-03-29T16:04:11.150Z,11.30
2023-03-29T16:06:38.442Z,9.50
2023-03-29T16:09:06.985Z,8.95
2023-03-29T16:11:34.195Z,11.02
2023-03-29T16:14:01.143Z,10.95
2023-03-29T16:16:27.779Z,11.23
2023-03-29T16:18:54.399Z,9.93
2023-03-29T16:21:22.763Z,11.43
2023-03-29T16:23:49.942Z,11.00
2023-03-29T16:26:17.224Z,8.25
2023-03-29T16:28:44.159Z,7.15
2023-03-29T16:31:12.772Z,8.37
2023-03-29T16:33:40.939Z,8.75
2023-03-29T16:36:08.125Z,10.82
2023-03-29T16:38:34.834Z,10.40
2023-03-29T16:41:01.650Z,8.68
2023-03-29T16:43:28.479Z,8.03
2023-03-29T16:45:55.217Z,10.55
2023-03-29T16:48:22.050Z,7.95
2023-03-29T16:50:49.416Z,8.95
2023-03-29T16:53:18.505Z,7.70
2023-03-29T16:55:46.245Z,7.50
2023-03-29T16:58:13.205Z,10.30
2023-03-29T17:00:40.919Z,9.35
2023-03-29T17:03:07.954Z,10.05
2023-03-29T17:05:39.868Z,7.05
2023-03-29T17:08:07.108Z,7.50
2023-03-29T17:10:33.804Z,8.73
2023-03-29T17:13:00.794Z,14.00
2023-03-29T17:15:27.425Z,8.25
2023-03-29T17:17:54.097Z,8.45
2023-03-29T17:20:20.994Z,10.53
2023-03-29T17:22:51.495Z,8.73
2023-03-29T17:25:18.743Z,8.65
2023-03-29T17:27:46.032Z,7.88
2023-03-29T17:30:13.022Z,11.68
2023-03-29T17:32:41.376Z,10.57
2023-03-29T17:35:09.900Z,8.32
2023-03-29T17:37:37.503Z,11.85
2023-03-29T17:40:13.481Z,8.80
2023-03-29T17:42:41.012Z,8.93
2023-03-29T17:45:08.758Z,5.87
2023-03-29T17:47:35.492Z,8.50
2023-03-29T17:50:02.371Z,8.85
2023-03-29T17:52:29.124Z,8.25
2023-03-29T17:54:55.853Z,8.73
2023-03-29T17:57:22.876Z,11.40
2023-03-29T17:59:49.771Z,8.57
2023-03-29T18:02:18.689Z,7.97
2023-03-29T18:04:45.380Z,12.98
2023-03-29T18:07:12.138Z,8.93
2023-03-29T18:09:38.752Z,6.47
2023-03-29T18:12:05.591Z,8.38
2023-03-29T18:14:32.643Z,8.85
2023-03-29T18:16:59.263Z,7.90
2023-03-29T18:19:26.418Z,5.85
2023-03-29T18:21:53.061Z,8.77
2023-03-29T18:24:19.819Z,14.18
2023-03-29T18:26:46.452Z,10.13
2023-03-29T18:29:13.203Z,11.13
2023-03-29T18:31:39.936Z,7.25
2023-03-29T18:34:06.631Z,8.07
2023-03-29T18:36:33.320Z,8.63
2023-03-29T18:39:05.490Z,7.18
2023-03-29T18:41:37.234Z,8.13
2023-03-29T18:44:04.458Z,8.32
2023-03-29T18:46:32.290Z,7.80
2023-03-29T18:49:01.616Z,7.35
2023-03-29T18:51:28.324Z,9.02
2023-03-29T18:53:56.500Z,9.27
2023-03-29T18:56:23.580Z,9.13
2023-03-29T18:58:50.420Z,6.77
2023-03-29T19:01:17.183Z,7.10
2023-03-29T19:03:44.071Z,7.93
2023-03-29T19:06:11.749Z,8.93
2023-03-29T19:08:41.031Z,7.63
2023-03-29T19:11:10.174Z,6.30
2023-03-29T19:13:36.977Z,5.90
2023-03-29T19:16:04.485Z,12.00
2023-03-29T19:18:31.567Z,8.77
2023-03-29T19:20:58.357Z,7.68
2023-03-29T19:23:27.486Z,8.57
2023-03-29T19:25:58.877Z,7.32
2023-03-29T19:28:26.393Z,12.40
2023-03-29T19:30:54.224Z,9.60
2023-03-29T19:33:20.936Z,9.93
2023-03-29T19:35:50.218Z,12.27
2023-03-29T19:38:16.982Z,7.68
2023-03-29T19:40:51.346Z,9.85
2023-03-29T19:43:18.363Z,8.15
2023-03-29T19:45:49.656Z,9.25
2023-03-29T19:50:47.496Z,8.20
2023-03-29T19:53:14.213Z,9.23
2023-03-29T19:55:42.431Z,7.80
2023-03-29T19:58:09.383Z,10.52
2023-03-29T20:00:38.892Z,10.80
2023-03-29T20:03:09.996Z,12.60
2023-03-29T20:05:39.014Z,10.63
2023-03-29T20:08:06.598Z,9.43
2023-03-29T20:10:33.942Z,12.27
2023-03-29T20:13:00.684Z,11.83
2023-03-29T20:15:27.370Z,9.65
2023-03-29T20:17:58.503Z,11.93
2023-03-29T20:20:26.701Z,10.73
2023-03-29T20:22:57.901Z,9.65
2023-03-29T20:25:24.848Z,11.77
2023-03-29T20:27:51.441Z,12.23
2023-03-29T20:30:18.062Z,15.23
2023-03-29T20:32:44.757Z,7.63
2023-03-29T20:35:11.675Z,13.77
2023-03-29T20:37:38.263Z,9.37
2023-03-29T20:40:06.177Z,9.77
2023-03-29T20:42:34.276Z,9.88
2023-03-29T20:45:01.780Z,10.43
2023-03-29T20:47:29.342Z,11.18
2023-03-29T20:49:56.734Z,11.40
2023-03-29T20:52:24.552Z,11.40
2023-03-29T20:54:51.365Z,9.52
2023-03-29T20:57:20.535Z,12.93
2023-03-29T20:59:49.064Z,9.98
2023-03-29T21:02:21.373Z,10.77
2023-03-29T21:04:52.395Z,12.60
2023-03-29T21:07:20.212Z,10.25
2023-03-29T21:09:49.857Z,11.85
2023-03-29T21:12:16.733Z,10.77
2023-03-29T21:14:43.545Z,10.27
2023-03-29T21:17:10.328Z,12.65
2023-03-29T21:19:39.054Z,12.90
2023-03-29T21:22:06.027Z,11.45
2023-03-29T21:24:33.168Z,11.95
2023-03-29T21:27:00.488Z,15.30
2023-03-29T21:29:27.205Z,9.32
2023-03-29T21:31:54.037Z,9.45
2023-03-29T21:34:20.685Z,12.70
2023-03-29T21:36:47.409Z,11.13
2023-03-29T21:39:14.136Z,10.10
2023-03-29T21:41:41.005Z,9.27
2023-03-29T21:44:07.720Z,11.52
2023-03-29T21:46:34.518Z,13.10
2023-03-29T21:49:01.212Z,9.75
2023-03-29T21:51:27.793Z,10.07
2023-03-29T21:53:54.391Z,13.82
2023-03-29T21:56:22.307Z,11.60
2023-03-29T21:58:49.080Z,15.23
2023-03-29T22:01:16.163Z,9.90
2023-03-29T22:03:43.009Z,12.43
2023-03-29T22:06:13.435Z,11.18
2023-03-29T22:08:40.587Z,11.25
2023-03-29T22:11:13.854Z,14.35
2023-03-29T22:13:41.545Z,10.20
2023-03-29T22:16:09.406Z,11.93
2023-03-29T22:18:43.891Z,9.68
2023-03-29T22:21:16.289Z,8.80
2023-03-29T22:23:44.928Z,11.55
2023-03-29T22:26:13.738Z,10.45
2023-03-29T22:28:41.652Z,13.97
2023-03-29T22:31:11.385Z,13.18
2023-03-29T22:33:38.924Z,13.45
2023-03-29T22:36:20.932Z,10.55
2023-03-29T22:38:48.354Z,10.07
2023-03-29T22:41:15.997Z,10.27
2023-03-29T22:43:42.674Z,7.80
2023-03-29T22:46:12.304Z,12.02
2023-03-29T22:48:39.711Z,10.50
2023-03-29T22:51:06.512Z,11.98
2023-03-29T22:53:33.888Z,9.13
2023-03-29T22:56:00.844Z,7.25
2023-03-29T22:58:29.257Z,8.00
2023-03-29T23:00:57.233Z,7.28
2023-03-29T23:03:24.128Z,12.02
2023-03-29T23:05:56.309Z,10.23
2023-03-29T23:08:24.816Z,9.43
2023-03-29T23:10:52.133Z,10.48
2023-03-29T23:13:33.470Z,14.38
2023-03-29T23:16:01.744Z,8.63
2023-03-29T23:18:30.185Z,7.50
2023-03-29T23:20:58.823Z,9.60
2023-03-29T23:23:26.840Z,7.97
2023-03-29T23:25:55.037Z,15.20
2023-03-29T23:28:24.860Z,9.35
2023-03-29T23:31:06.448Z,13.67
2023-03-29T23:33:34.861Z,9.60
2023-03-29T23:36:05.280Z,7.10
2023-03-29T23:38:34.145Z,8.73
2023-03-29T23:41:02.731Z,9.80
2023-03-29T23:43:32.664Z,7.83
2023-03-29T23:46:01.553Z,10.60
2023-03-29T23:48:28.639Z,8.77
2023-03-29T23:50:57.215Z,10.45
2023-03-29T23:53:25.396Z,10.32
2023-03-29T23:55:52.522Z,9.13
2023-03-29T23:58:19.179Z,9.00
